Gatesville, TX (76528)

7:56 PM CDT on August 04, 2015 (GMT -0500)
Rhudys on Cedar Ridge | | Change Station
CLOSE
Current Station
Personal Weather Station
Location: Gatesville, TX
Elevation: 1043 ft
Nearby Weather Stations

Elev 1043 ft 31.45 °N, 97.70 °W | Updated 2 seconds ago

Clear
Clear
92.6 °F
Feels Like 97 °F
N
3.5
Wind Variable Wind from SE
Gusts 3.5 mph

Today
High -- | Low -- °F
--% Chance of Precip.
Yesterday
High -- | Low -- °F
Precip. -- in
6:49 AM 8:24 PM
Waning Gibbous, 73% visible
Pressure 29.90 in
Visibility 4.0 miles
Clouds Clear
Heat Index 97 °F
Dew Point 68 °F
Humidity 45%
Rainfall 0.00 in
Snow Depth Not available.
UV 0 out of 12
Pollen 6.50 out of 12
Air Quality Not available.
Flu Activity Not available.
METAR KGOP 050035Z AUTO 15009KT 4SM HZ CLR 35/19 A2990 RMK AO2

More Conditions Fewer Conditions

Pressure 29.90 in
Visibility 4.0 miles
Clouds Clear
Heat Index 97 °F
Dew Point 68 °F
Humidity 45%
Rainfall 0.00 in
Snow Depth Not available.
UV 0 out of 12
Pollen 6.50 out of 12
Air Quality Not available.
Flu Activity Not available.
METAR KGOP 050035Z AUTO 15009KT 4SM HZ CLR 35/19 A2990 RMK AO2

More Conditions Fewer Conditions

Nowcast | as of 5:01 PM CDT on August 4, 2015

A few showers will be possible late this afternoon mainly along and southeast of a Cameron to Mexia to Palestine line. A rumble of thunder or two will also be possible. A few showers may be possible along the Red River as well. Precipitation should diminish after sunset. Rainfall amounts across all locations should remain light...less than a few hundreths of an inch. Otherwise...hot conditions will continue with temperatures in the mid to upper 90s. Skies will range from partly to mostly cloudy across much of north and central Texas.

×

10-Day Weather Forecast

×

Almanac

Astronomy

Aug. 04, 2015 Rise Set
Actual Time
Civil Twilight
Nautical Twilight
Astronomical Twilight
Moon
Length of Visible Light
Length of Day
Tomorrow will be .
, % of the Moon is Illuminated

Today's Extremes

State Highs State Lows

Community

WunderPhotos

Upload Photos

1,844,033 photos uploaded!

WunderBlogs® & News

Nearby

Air Quality

  Air Quality AQ Index Pollutant
Not available.

Snow Depth

Station Depth Elevation

Earthquake Activity

City Distance Mag. Time & Date
Minimum magnitude displayed is 2.5.

Coastal Water Temperatures

Place Temperature

Stations

Nearby Weather Stations

Station Location Temp. Windchill Dew Point Humidity Wind Precip. Elev Updated Type